Time;durP1;ratioP1;P1;durP2;ratioP2;P2;SDS_P1;SDS_P2;PMS_P1;PMS_P2;Temp;Humidity;BMP_temperature;BMP_pressure;BME280_temperature;BME280_humidity;BME280_pressure;Samples;Min_cycle;Max_cycle;Signal;HPM_P1;HPM_P2
2023/09/02 00:01:45;;;;;;;12.80;11.50;;;;;;;16.78;100.00;99034.05;109556;1253;58175;-70
2023/09/02 00:04:12;;;;;;;12.30;11.20;;;;;;;16.77;100.00;99031.20;109577;1253;58207;-70
2023/09/02 00:06:38;;;;;;;13.10;10.70;;;;;;;16.77;100.00;99024.38;109589;1253;64013;-70
2023/09/02 00:09:05;;;;;;;10.90;9.50;;;;;;;16.79;100.00;99020.64;109575;1253;58931;-71
2023/09/02 00:11:31;;;;;;;11.90;9.50;;;;;;;16.79;100.00;99016.27;109529;1253;64897;-70
2023/09/02 00:13:58;;;;;;;10.00;9.10;;;;;;;16.82;100.00;99020.58;109571;1253;58205;-71
2023/09/02 00:16:24;;;;;;;9.30;8.30;;;;;;;16.84;100.00;99028.08;109628;1253;58296;-71
2023/09/02 00:18:51;;;;;;;9.40;8.10;;;;;;;16.85;100.00;99029.74;109595;1253;65207;-71
2023/09/02 00:21:18;;;;;;;9.30;8.10;;;;;;;16.86;100.00;99040.45;109598;1253;58886;-71
2023/09/02 00:23:47;;;;;;;9.10;8.30;;;;;;;16.87;100.00;99044.65;109569;1252;63933;-70
2023/09/02 00:26:15;;;;;;;10.40;9.00;;;;;;;16.87;100.00;99037.66;109177;1253;58221;-71
2023/09/02 00:28:41;;;;;;;10.40;8.40;;;;;;;16.87;100.00;99033.35;109587;1252;58222;-71
2023/09/02 00:31:07;;;;;;;9.60;8.60;;;;;;;16.88;100.00;99028.91;109651;1253;58129;-70
2023/09/02 00:33:34;;;;;;;9.20;7.90;;;;;;;16.91;100.00;99028.34;109618;1253;58133;-70
2023/09/02 00:36:01;;;;;;;10.30;8.70;;;;;;;16.93;100.00;99031.20;109598;1253;63902;-71
2023/09/02 00:38:27;;;;;;;10.40;7.40;;;;;;;16.95;100.00;99026.38;109547;1253;58124;-70
2023/09/02 00:41:02;;;;;;;10.00;8.90;;;;;;;16.96;100.00;99022.98;109598;1253;58152;-71
2023/09/02 00:43:29;;;;;;;9.40;8.50;;;;;;;16.98;100.00;99021.23;109570;1253;65733;-70
2023/09/02 00:45:57;;;;;;;9.60;8.70;;;;;;;16.99;100.00;99021.65;109636;1253;59791;-70
2023/09/02 00:48:23;;;;;;;11.00;8.50;;;;;;;17.00;100.00;99015.03;109576;1253;62854;-70
2023/09/02 00:50:50;;;;;;;9.00;8.00;;;;;;;17.02;100.00;99013.49;109171;1253;58194;-71
2023/09/02 00:53:18;;;;;;;9.50;8.60;;;;;;;17.02;100.00;99009.45;109624;1252;58050;-70
2023/09/02 00:55:46;;;;;;;9.70;8.90;;;;;;;17.03;100.00;99007.24;109196;1253;65926;-70
2023/09/02 00:58:13;;;;;;;13.00;12.00;;;;;;;17.03;100.00;99004.73;109623;1253;60099;-70
2023/09/02 01:00:40;;;;;;;14.10;12.90;;;;;;;17.03;100.00;98999.73;109557;1252;64186;-70
2023/09/02 01:03:07;;;;;;;13.00;11.90;;;;;;;17.03;100.00;99002.55;109534;1253;58583;-71
2023/09/02 01:05:34;;;;;;;14.10;12.50;;;;;;;17.03;100.00;99002.02;109190;1253;59120;-70
2023/09/02 01:08:03;;;;;;;12.20;11.00;;;;;;;17.03;100.00;99001.66;109593;1253;65227;-71
2023/09/02 01:10:34;;;;;;;10.20;9.30;;;;;;;17.03;100.00;98997.78;109574;1253;58916;-71
2023/09/02 01:13:02;;;;;;;10.10;9.00;;;;;;;17.02;100.00;98999.45;109549;1252;63020;-70
2023/09/02 01:15:29;;;;;;;9.30;8.50;;;;;;;17.03;100.00;98994.55;109588;1253;58156;-71
2023/09/02 01:17:56;;;;;;;9.10;8.20;;;;;;;17.05;100.00;98993.21;109170;1253;58230;-71
2023/09/02 01:20:27;;;;;;;9.90;8.90;;;;;;;17.06;100.00;98992.23;109574;1253;65300;-71
2023/09/02 01:23:15;;;;;;;10.20;9.30;;;;;;;17.06;100.00;98993.30;109568;1253;60105;-70
2023/09/02 01:25:59;;;;;;;9.60;8.70;;;;;;;17.06;100.00;98993.88;109563;1253;62802;-71
2023/09/02 01:28:33;;;;;;;8.50;7.60;;;;;;;17.06;100.00;98994.94;109586;1253;58168;-71
2023/09/02 01:31:03;;;;;;;8.60;7.40;;;;;;;17.07;100.00;98990.41;109583;1253;58285;-71
2023/09/02 01:33:30;;;;;;;8.90;8.00;;;;;;;17.07;100.00;98991.58;109554;1253;64935;-71
2023/09/02 01:36:00;;;;;;;8.00;7.30;;;;;;;17.09;100.00;98987.63;109587;1253;60239;-71
2023/09/02 01:38:31;;;;;;;8.40;7.60;;;;;;;17.10;100.00;98986.29;109257;1253;63783;-71
2023/09/02 01:41:00;;;;;;;7.40;6.80;;;;;;;17.11;100.00;98988.20;109513;1252;58125;-71
2023/09/02 01:43:29;;;;;;;7.70;6.90;;;;;;;17.11;100.00;98991.59;109594;1252;58130;-71
2023/09/02 01:45:57;;;;;;;6.60;6.00;;;;;;;17.12;100.00;98989.89;109182;1253;65070;-71
2023/09/02 01:48:26;;;;;;;6.60;6.10;;;;;;;17.12;100.00;98999.05;109587;1253;59926;-70
2023/09/02 01:50:54;;;;;;;6.50;5.80;;;;;;;17.12;100.00;99000.52;109175;1253;62953;-71
2023/09/02 01:53:20;;;;;;;7.60;6.20;;;;;;;17.11;100.00;99000.42;109552;1253;58276;-72
2023/09/02 01:55:48;;;;;;;7.00;6.30;;;;;;;17.11;100.00;99000.38;109576;1253;58137;-71
2023/09/02 01:58:15;;;;;;;7.70;6.90;;;;;;;17.12;100.00;99002.84;109613;1253;64304;-71
2023/09/02 02:00:42;;;;;;;8.60;7.90;;;;;;;17.11;100.00;99004.69;109571;1252;59987;-71
2023/09/02 02:03:37;;;;;;;8.40;7.60;;;;;;;17.09;100.00;99015.35;109556;1253;64085;-71
2023/09/02 02:06:07;;;;;;;6.80;6.10;;;;;;;17.06;100.00;99024.94;109562;1253;58211;-71
2023/09/02 02:08:54;;;;;;;7.90;7.20;;;;;;;17.04;100.00;99024.20;109571;1253;58402;-71
2023/09/02 02:11:22;;;;;;;7.80;7.00;;;;;;;17.02;100.00;99025.86;109575;1253;65267;-71
2023/09/02 02:13:49;;;;;;;9.70;8.70;;;;;;;17.00;100.00;99026.91;109306;1253;59204;-71
2023/09/02 02:16:16;;;;;;;11.00;10.10;;;;;;;16.99;100.00;99025.19;109599;1253;62768;-72
2023/09/02 02:18:42;;;;;;;10.90;9.80;;;;;;;16.98;100.00;99028.42;109555;1253;58208;-71
2023/09/02 02:21:09;;;;;;;13.60;12.30;;;;;;;16.96;100.00;99024.80;109612;1253;58200;-72
2023/09/02 02:23:35;;;;;;;13.30;12.00;;;;;;;16.94;100.00;99022.11;109593;1253;58804;-71
2023/09/02 02:26:04;;;;;;;14.30;13.10;;;;;;;16.92;100.00;99015.11;109182;1253;60329;-71
2023/09/02 02:28:30;;;;;;;15.60;14.10;;;;;;;16.89;100.00;99010.91;109157;1252;63758;-71
2023/09/02 02:31:01;;;;;;;15.70;14.20;;;;;;;16.87;100.00;99007.89;109579;1253;58175;-71
2023/09/02 02:33:27;;;;;;;13.90;12.60;;;;;;;16.84;100.00;99004.65;109604;1253;58502;-71
2023/09/02 02:35:54;;;;;;;16.20;14.60;;;;;;;16.83;100.00;99008.59;109543;1253;63751;-71
2023/09/02 02:38:21;;;;;;;16.40;13.90;;;;;;;16.80;100.00;99012.44;109626;1253;59079;-71
2023/09/02 02:40:48;;;;;;;15.30;13.90;;;;;;;16.76;100.00;99010.44;109565;1253;62843;-71
2023/09/02 02:43:14;;;;;;;15.10;13.50;;;;;;;16.74;100.00;99007.77;109560;1253;58201;-71
2023/09/02 02:45:41;;;;;;;14.70;13.30;;;;;;;16.73;100.00;99006.09;109535;1253;58345;-71
2023/09/02 02:48:15;;;;;;;15.20;13.70;;;;;;;16.72;100.00;99002.96;109549;1253;65222;-71
2023/09/02 02:50:41;;;;;;;14.40;13.10;;;;;;;16.71;100.00;99005.22;109579;1253;60157;-71
2023/09/02 02:53:08;;;;;;;14.70;13.50;;;;;;;16.68;100.00;99007.27;109172;1253;64061;-71
2023/09/02 02:55:34;;;;;;;16.30;14.80;;;;;;;16.67;100.00;99009.67;109601;1253;58182;-71
2023/09/02 02:58:01;;;;;;;14.80;13.40;;;;;;;16.68;100.00;99011.13;109564;1252;58198;-71
2023/09/02 03:00:27;;;;;;;14.10;12.80;;;;;;;16.69;100.00;99013.77;109545;1253;65193;-71
2023/09/02 03:02:54;;;;;;;14.60;13.30;;;;;;;16.70;100.00;99016.27;109595;1253;58967;-71
2023/09/02 03:05:21;;;;;;;14.30;13.00;;;;;;;16.70;100.00;99012.79;109585;1252;62560;-71
2023/09/02 03:07:48;;;;;;;13.40;12.20;;;;;;;16.71;100.00;99010.35;109631;1252;58177;-71
2023/09/02 03:10:15;;;;;;;14.30;12.90;;;;;;;16.72;100.00;99007.60;109606;1253;58150;-71
2023/09/02 03:12:41;;;;;;;13.40;12.30;;;;;;;16.73;100.00;99010.44;109614;1254;64156;-71
2023/09/02 03:15:08;;;;;;;14.00;12.80;;;;;;;16.73;100.00;99012.87;109236;1253;58284;-70
2023/09/02 03:17:34;;;;;;;13.50;12.30;;;;;;;16.74;100.00;99014.02;109625;1252;62872;-70
2023/09/02 03:20:01;;;;;;;13.40;12.00;;;;;;;16.76;100.00;99010.46;109536;1252;58199;-71
2023/09/02 03:22:28;;;;;;;13.50;12.20;;;;;;;16.77;100.00;99014.88;109612;1253;58137;-71
2023/09/02 03:24:55;;;;;;;12.60;11.40;;;;;;;16.77;100.00;99015.61;109585;1252;65335;-71
2023/09/02 03:27:21;;;;;;;14.20;12.80;;;;;;;16.78;100.00;99011.94;109616;1253;61608;-71
2023/09/02 03:29:49;;;;;;;14.30;13.00;;;;;;;16.78;100.00;99016.41;109578;1253;58254;-73
2023/09/02 03:32:15;;;;;;;15.20;13.80;;;;;;;16.78;100.00;99019.45;109520;1253;58117;-72
2023/09/02 03:34:42;;;;;;;15.80;13.50;;;;;;;16.79;100.00;99021.91;109589;1253;58059;-72
2023/09/02 03:37:09;;;;;;;16.60;15.10;;;;;;;16.79;100.00;99023.64;109523;1253;65341;-71
2023/09/02 03:39:36;;;;;;;16.00;14.60;;;;;;;16.78;100.00;99029.10;109591;1253;60070;-71
2023/09/02 03:42:03;;;;;;;24.80;22.50;;;;;;;16.78;100.00;99033.25;109620;1253;64075;-73
2023/09/02 03:44:31;;;;;;;19.80;18.00;;;;;;;16.76;100.00;99036.08;109639;1253;58402;-71
2023/09/02 03:46:57;;;;;;;18.80;17.20;;;;;;;16.76;100.00;99035.36;109586;1253;58599;-71
2023/09/02 03:49:24;;;;;;;16.50;15.00;;;;;;;16.77;100.00;99041.44;109586;1253;58153;-71
2023/09/02 03:51:50;;;;;;;19.00;17.30;;;;;;;16.77;100.00;99042.84;109586;1253;59004;-71
2023/09/02 03:54:17;;;;;;;18.20;16.50;;;;;;;16.78;100.00;99044.40;109586;1253;64007;-71
2023/09/02 03:56:43;;;;;;;18.20;16.60;;;;;;;16.79;100.00;99042.73;109560;1253;58207;-71
2023/09/02 03:59:10;;;;;;;18.10;16.40;;;;;;;16.79;100.00;99041.05;109615;1253;58184;-71
2023/09/02 04:01:36;;;;;;;17.60;16.10;;;;;;;16.80;100.00;99044.07;109627;1253;65317;-70
2023/09/02 04:04:03;;;;;;;17.40;16.00;;;;;;;16.81;100.00;99045.27;109557;1253;59969;-71
2023/09/02 04:06:30;;;;;;;17.10;15.50;;;;;;;16.80;100.00;99045.46;109612;1253;62849;-71
2023/09/02 04:08:56;;;;;;;17.20;15.70;;;;;;;16.80;100.00;99049.23;109542;1253;58119;-71
2023/09/02 04:11:23;;;;;;;17.50;15.90;;;;;;;16.80;100.00;99054.25;109642;1253;58243;-71
2023/09/02 04:13:50;;;;;;;18.40;16.90;;;;;;;16.80;100.00;99055.70;109625;1253;65239;-71
2023/09/02 04:16:16;;;;;;;18.80;17.10;;;;;;;16.81;100.00;99057.08;109611;1253;58156;-71
2023/09/02 04:18:42;;;;;;;17.50;15.90;;;;;;;16.82;100.00;99056.98;109526;1253;58599;-71
2023/09/02 04:21:09;;;;;;;16.80;15.30;;;;;;;16.83;100.00;99058.66;109530;1253;58262;-71
2023/09/02 04:23:36;;;;;;;16.10;14.60;;;;;;;16.84;100.00;99064.16;109505;1253;58147;-71
2023/09/02 04:26:03;;;;;;;16.80;15.10;;;;;;;16.85;100.00;99072.48;109565;1254;63998;-71
2023/09/02 04:28:30;;;;;;;15.80;14.30;;;;;;;16.86;100.00;99077.25;109588;1253;58696;-71
2023/09/02 04:30:57;;;;;;;14.90;13.50;;;;;;;16.87;100.00;99075.88;109525;1253;63731;-71
2023/09/02 04:33:24;;;;;;;15.90;14.20;;;;;;;16.88;100.00;99082.98;109567;1252;58125;-71
2023/09/02 04:35:51;;;;;;;16.70;14.20;;;;;;;16.88;100.00;99084.42;109563;1253;58116;-71
2023/09/02 04:38:19;;;;;;;24.80;19.80;;;;;;;16.88;100.00;99085.44;109566;1253;65187;-71
2023/09/02 04:40:45;;;;;;;16.20;14.60;;;;;;;16.91;100.00;99084.87;109598;1253;60007;-71
2023/09/02 04:43:13;;;;;;;16.50;13.30;;;;;;;16.94;100.00;99082.64;109558;1253;64132;-71
2023/09/02 04:45:41;;;;;;;49.30;28.80;;;;;;;16.95;100.00;99087.31;109514;1253;58227;-71
2023/09/02 04:48:09;;;;;;;27.30;18.60;;;;;;;16.97;100.00;99092.39;109567;1253;58241;-71
2023/09/02 04:50:36;;;;;;;18.00;14.50;;;;;;;16.98;100.00;99094.77;109593;1253;65285;-71
2023/09/02 04:53:04;;;;;;;27.60;19.70;;;;;;;17.00;100.00;99094.02;109566;1253;58994;-71
2023/09/02 04:55:30;;;;;;;52.90;32.60;;;;;;;17.03;100.00;99094.00;109569;1253;63752;-71
2023/09/02 04:57:57;;;;;;;31.70;21.80;;;;;;;17.04;100.00;99099.84;109584;1253;58132;-71
2023/09/02 05:00:26;;;;;;;16.00;14.30;;;;;;;17.04;100.00;99101.73;109560;1253;58042;-71
2023/09/02 05:02:53;;;;;;;13.70;12.50;;;;;;;17.06;100.00;99103.00;109595;1253;64900;-71
2023/09/02 05:05:21;;;;;;;13.20;11.90;;;;;;;17.09;100.00;99107.35;109564;1254;60218;-71
2023/09/02 05:07:49;;;;;;;13.40;12.00;;;;;;;17.14;100.00;99108.43;109564;1253;64146;-71
2023/09/02 05:10:16;;;;;;;14.80;13.40;;;;;;;17.14;100.00;99111.32;109625;1253;58193;-71
2023/09/02 05:12:43;;;;;;;13.90;12.70;;;;;;;17.16;100.00;99112.70;109561;1253;58117;-71
2023/09/02 05:15:10;;;;;;;16.10;14.50;;;;;;;17.20;100.00;99117.73;109589;1253;65296;-73
2023/09/02 05:17:37;;;;;;;15.80;14.20;;;;;;;17.23;100.00;99124.42;109594;1253;59977;-71
2023/09/02 05:20:05;;;;;;;13.90;12.70;;;;;;;17.28;100.00;99124.51;109591;1253;62844;-71
2023/09/02 05:22:32;;;;;;;14.00;12.60;;;;;;;17.33;100.00;99122.75;109577;1254;58166;-71
2023/09/02 05:24:59;;;;;;;14.60;13.40;;;;;;;17.39;100.00;99121.70;109580;1253;58977;-72
2023/09/02 05:27:26;;;;;;;14.90;13.60;;;;;;;17.45;100.00;99123.17;109584;1254;64046;-72
2023/09/02 05:29:52;;;;;;;14.60;13.40;;;;;;;17.49;100.00;99126.88;109576;1253;60169;-71
2023/09/02 05:32:19;;;;;;;15.10;13.80;;;;;;;17.52;100.00;99131.27;109170;1253;58545;-70
2023/09/02 05:34:46;;;;;;;14.20;13.00;;;;;;;17.54;100.00;99129.39;109560;1253;58137;-71
2023/09/02 05:37:13;;;;;;;14.30;13.20;;;;;;;17.62;100.00;99129.78;109586;1252;58126;-72
2023/09/02 05:39:40;;;;;;;15.00;13.70;;;;;;;17.72;100.00;99132.63;109578;1253;63714;-70
2023/09/02 05:42:06;;;;;;;13.40;12.20;;;;;;;17.81;100.00;99139.14;109539;1253;60123;-70
2023/09/02 05:44:37;;;;;;;15.40;13.90;;;;;;;17.87;100.00;99139.86;109601;1253;64051;-71
2023/09/02 05:47:03;;;;;;;14.10;12.90;;;;;;;17.90;100.00;99139.17;109547;1253;58219;-71
2023/09/02 05:49:34;;;;;;;15.60;14.20;;;;;;;17.95;100.00;99143.42;109576;1253;58224;-71
2023/09/02 05:52:01;;;;;;;14.70;13.50;;;;;;;17.95;100.00;99146.30;109624;1253;65528;-71
2023/09/02 05:54:28;;;;;;;14.70;13.40;;;;;;;17.96;100.00;99149.77;109540;1253;58906;-71
2023/09/02 05:56:54;;;;;;;15.20;13.80;;;;;;;17.97;100.00;99148.45;109555;1253;63765;-71
2023/09/02 05:59:21;;;;;;;14.30;13.00;;;;;;;18.00;100.00;99149.95;109146;1253;58255;-71
2023/09/02 06:01:47;;;;;;;14.00;12.80;;;;;;;18.03;100.00;99147.54;109553;1253;58181;-71
2023/09/02 06:04:14;;;;;;;13.70;12.40;;;;;;;18.06;100.00;99147.19;109140;1260;65229;-71
2023/09/02 06:06:40;;;;;;;13.90;12.70;;;;;;;18.13;100.00;99148.92;109603;1253;58159;-71
2023/09/02 06:09:08;;;;;;;13.00;11.90;;;;;;;18.20;100.00;99153.09;109575;1253;64012;-71
2023/09/02 06:11:35;;;;;;;12.10;11.10;;;;;;;18.28;100.00;99154.61;109277;1254;58229;-71
2023/09/02 06:14:02;;;;;;;13.00;12.00;;;;;;;18.34;100.00;99154.39;109530;1253;58063;-71
2023/09/02 06:16:29;;;;;;;12.40;11.20;;;;;;;18.41;100.00;99153.00;109583;1254;66411;-71
2023/09/02 06:18:55;;;;;;;12.00;11.00;;;;;;;18.45;100.00;99155.36;109585;1253;60223;-71
2023/09/02 06:21:22;;;;;;;11.70;10.60;;;;;;;18.43;100.00;99155.89;109574;1254;64035;-72
2023/09/02 06:23:49;;;;;;;10.70;9.80;;;;;;;18.42;100.00;99159.15;109545;1253;58181;-71
2023/09/02 06:26:16;;;;;;;11.00;10.00;;;;;;;18.43;100.00;99161.06;109636;1253;58160;-72
2023/09/02 06:28:43;;;;;;;13.30;11.90;;;;;;;18.47;100.00;99159.51;109556;1254;65255;-71
2023/09/02 06:31:10;;;;;;;12.30;11.10;;;;;;;18.61;100.00;99161.66;109579;1253;58644;-71
2023/09/02 06:33:37;;;;;;;10.20;9.40;;;;;;;18.78;100.00;99161.84;109544;1253;64042;-71
2023/09/02 06:36:16;;;;;;;15.30;9.10;;;;;;;18.84;100.00;99163.98;109534;1253;58269;-73
2023/09/02 06:38:43;;;;;;;9.20;6.10;;;;;;;18.78;100.00;99167.95;109585;1254;58207;-71
2023/09/02 06:41:11;;;;;;;9.10;6.00;;;;;;;18.68;100.00;99174.69;109611;1253;65235;-71
2023/09/02 06:43:39;;;;;;;7.60;5.40;;;;;;;18.57;100.00;99175.25;109130;1254;59061;-71
2023/09/02 06:46:10;;;;;;;5.00;4.60;;;;;;;18.50;100.00;99181.98;109576;1254;62656;-72
2023/09/02 06:48:37;;;;;;;5.60;5.20;;;;;;;18.52;100.00;99183.77;109574;1253;58120;-72
2023/09/02 06:51:03;;;;;;;7.40;6.10;;;;;;;18.55;100.00;99184.23;109389;1253;179614;-72
2023/09/02 06:53:30;;;;;;;10.70;9.60;;;;;;;18.56;100.00;99183.42;109541;1253;65205;-70
2023/09/02 06:55:56;;;;;;;14.20;11.10;;;;;;;18.58;100.00;99189.54;109555;1253;60126;-70
2023/09/02 06:58:23;;;;;;;5.10;4.30;;;;;;;18.59;100.00;99192.98;109143;1253;63759;-70
2023/09/02 07:00:49;;;;;;;4.10;3.80;;;;;;;18.62;100.00;99199.76;109557;1253;58197;-71
2023/09/02 07:03:16;;;;;;;4.90;4.50;;;;;;;18.63;100.00;99201.56;109143;1253;58234;-71
2023/09/02 07:05:43;;;;;;;4.30;3.90;;;;;;;18.67;100.00;99202.85;109562;1253;64022;-71
2023/09/02 07:08:09;;;;;;;3.30;3.00;;;;;;;18.76;100.00;99203.98;109568;1254;59065;-71
2023/09/02 07:10:36;;;;;;;2.70;2.50;;;;;;;18.88;100.00;99207.67;109555;1253;64055;-71
2023/09/02 07:13:03;;;;;;;2.90;2.70;;;;;;;18.98;100.00;99213.78;109547;1253;58502;-71
2023/09/02 07:15:29;;;;;;;3.30;2.80;;;;;;;19.03;100.00;99218.47;109142;1253;59321;-72
2023/09/02 07:17:56;;;;;;;3.90;3.60;;;;;;;19.08;100.00;99218.88;109567;1253;64058;-71
2023/09/02 07:20:22;;;;;;;4.70;4.30;;;;;;;19.16;100.00;99219.73;109580;1253;60243;-71
2023/09/02 07:22:48;;;;;;;4.90;4.50;;;;;;;19.22;100.00;99227.55;109520;1253;62821;-70
2023/09/02 07:25:15;;;;;;;4.20;3.90;;;;;;;19.24;100.00;99229.39;109550;1256;58175;-71
2023/09/02 07:27:42;;;;;;;4.00;3.60;;;;;;;19.21;100.00;99234.83;109562;1253;58058;-71
2023/09/02 07:30:08;;;;;;;3.80;3.50;;;;;;;19.17;100.00;99239.60;109576;1253;65256;-71
2023/09/02 07:32:35;;;;;;;4.20;3.80;;;;;;;19.17;100.00;99246.83;109581;1253;58648;-70
2023/09/02 07:35:02;;;;;;;4.20;3.90;;;;;;;19.17;100.00;99246.42;109547;1253;64054;-72
2023/09/02 07:37:31;;;;;;;4.40;4.10;;;;;;;19.23;100.00;99248.85;109542;1253;58886;-71
2023/09/02 07:39:57;;;;;;;5.20;4.80;;;;;;;19.31;100.00;99254.45;109579;1253;58082;-71
2023/09/02 07:42:24;;;;;;;5.60;5.00;;;;;;;19.38;100.00;99257.20;109143;1254;58187;-71
2023/09/02 07:44:50;;;;;;;6.90;5.90;;;;;;;19.46;100.00;99259.44;109546;1253;60093;-71
2023/09/02 07:47:17;;;;;;;8.30;7.40;;;;;;;19.46;100.00;99258.13;109173;1253;64094;-71
2023/09/02 07:49:43;;;;;;;8.10;7.20;;;;;;;19.41;100.00;99258.34;109538;1253;58164;-71
2023/09/02 07:52:10;;;;;;;10.30;9.20;;;;;;;19.28;100.00;99262.44;109557;1253;58051;-70
2023/09/02 07:54:36;;;;;;;7.00;6.20;;;;;;;19.17;100.00;99268.08;109574;1253;64000;-71
2023/09/02 07:57:03;;;;;;;4.50;4.20;;;;;;;19.10;100.00;99272.73;109579;1253;58787;-71
2023/09/02 07:59:30;;;;;;;4.30;3.80;;;;;;;19.14;100.00;99276.09;109523;1254;64043;-71
2023/09/02 08:01:56;;;;;;;7.20;4.90;;;;;;;19.22;100.00;99281.22;109522;1253;58128;-71
2023/09/02 08:04:23;;;;;;;2.50;2.30;;;;;;;19.32;100.00;99285.92;109567;1253;58162;-72
2023/09/02 08:06:49;;;;;;;11.10;9.90;;;;;;;19.38;100.00;99288.18;109588;1253;58151;-72
2023/09/02 08:09:16;;;;;;;4.80;4.30;;;;;;;19.49;100.00;99284.52;109560;1254;60148;-71
2023/09/02 08:11:42;;;;;;;5.10;4.20;;;;;;;19.68;100.00;99284.27;109566;1253;62844;-71
2023/09/02 08:14:09;;;;;;;27.90;12.40;;;;;;;19.85;100.00;99289.23;109551;1253;58376;-71
2023/09/02 08:16:36;;;;;;;6.20;4.40;;;;;;;19.98;100.00;99294.77;109588;1253;58131;-72
2023/09/02 08:19:04;;;;;;;3.00;2.70;;;;;;;19.99;100.00;99294.65;109182;1253;65229;-71
2023/09/02 08:21:30;;;;;;;3.90;3.30;;;;;;;20.06;100.00;99297.10;109508;1253;60174;-71
2023/09/02 08:23:57;;;;;;;5.10;4.30;;;;;;;20.15;100.00;99297.41;109522;1253;62841;-71
2023/09/02 08:26:23;;;;;;;5.20;4.00;;;;;;;20.19;100.00;99304.55;109560;1256;58201;-71
2023/09/02 08:28:51;;;;;;;11.80;6.40;;;;;;;20.29;100.00;99298.84;109548;1253;58149;-71
2023/09/02 08:31:18;;;;;;;6.70;4.60;;;;;;;20.42;100.00;99304.72;109564;1253;64023;-71
2023/09/02 08:33:45;;;;;;;3.50;2.80;;;;;;;20.48;100.00;99307.91;109580;1254;59959;-71
2023/09/02 08:36:16;;;;;;;5.20;4.40;;;;;;;20.53;100.00;99310.10;109147;1254;64031;-71
2023/09/02 08:38:43;;;;;;;3.70;3.20;;;;;;;20.61;100.00;99306.04;109524;1253;58168;-71
2023/09/02 08:41:21;;;;;;;2.70;2.50;;;;;;;20.76;100.00;99311.34;109144;1254;58121;-71
2023/09/02 08:43:52;;;;;;;2.20;2.00;;;;;;;20.84;100.00;99313.05;109370;1251;65339;-72
2023/09/02 08:46:19;;;;;;;3.00;2.40;;;;;;;20.79;100.00;99315.40;109719;1250;61351;-72
2023/09/02 08:48:47;;;;;;;3.00;2.70;;;;;;;20.77;100.00;99313.39;109498;1251;64094;-71
2023/09/02 08:51:14;;;;;;;2.90;2.00;;;;;;;20.75;100.00;99314.67;109417;1251;58250;-71
2023/09/02 08:53:42;;;;;;;2.20;2.00;;;;;;;20.86;100.00;99320.45;109678;1251;58160;-71
2023/09/02 08:56:10;;;;;;;3.00;2.40;;;;;;;20.91;100.00;99325.46;109668;1251;65363;-70
2023/09/02 08:58:39;;;;;;;2.50;2.30;;;;;;;21.00;100.00;99327.94;109455;1250;60044;-71
2023/09/02 09:01:06;;;;;;;2.40;2.20;;;;;;;21.21;100.00;99330.11;109653;1251;63797;-70
2023/09/02 09:03:33;;;;;;;2.60;2.20;;;;;;;21.46;100.00;99331.63;109328;1251;58595;-71
2023/09/02 09:06:02;;;;;;;4.00;3.60;;;;;;;21.82;100.00;99333.16;109647;1250;58146;-70
2023/09/02 09:08:30;;;;;;;3.70;3.40;;;;;;;22.13;100.00;99332.87;109132;1251;63787;-71
2023/09/02 09:10:57;;;;;;;4.90;4.40;;;;;;;22.31;100.00;99337.07;109655;1251;58913;-70
2023/09/02 09:13:26;;;;;;;3.00;2.80;;;;;;;22.39;100.00;99343.11;109641;1250;63720;-70
2023/09/02 09:15:56;;;;;;;3.40;3.10;;;;;;;22.43;100.00;99343.89;109622;1251;58151;-71
2023/09/02 09:18:22;;;;;;;;;;;;;;;22.58;100.00;99344.35;109661;1251;58191;-71
2023/09/02 09:20:49;;;;;;;2.50;2.00;;;;;;;22.84;100.00;99339.52;109481;1250;65279;-70
2023/09/02 09:23:16;;;;;;;2.80;2.50;;;;;;;23.02;100.00;99346.52;109624;1251;60360;-70
2023/09/02 09:25:42;;;;;;;2.50;2.30;;;;;;;23.08;100.00;99346.44;109609;1250;63737;-69
2023/09/02 09:28:11;;;;;;;3.00;2.70;;;;;;;23.17;100.00;99344.50;109656;1251;58142;-70
2023/09/02 09:30:38;;;;;;;3.80;2.70;;;;;;;23.27;100.00;99343.30;109664;1251;58033;-70
2023/09/02 09:33:05;;;;;;;2.90;2.60;;;;;;;23.32;100.00;99344.06;109654;1250;65290;-71
2023/09/02 09:35:33;;;;;;;2.60;2.40;;;;;;;23.26;100.00;99341.84;109374;1251;59018;-70
2023/09/02 09:38:01;;;;;;;3.10;2.50;;;;;;;23.05;100.00;99343.27;109653;1251;64146;-70
2023/09/02 09:40:32;;;;;;;3.00;2.80;;;;;;;22.87;100.00;99344.71;109675;1251;58215;-70
2023/09/02 09:43:00;;;;;;;4.30;2.80;;;;;;;22.81;100.00;99349.27;109684;1251;58593;-70
2023/09/02 09:45:27;;;;;;;4.30;2.60;;;;;;;22.74;100.00;99350.01;109601;1251;66380;-70
2023/09/02 09:48:09;;;;;;;3.00;2.80;;;;;;;22.70;100.00;99351.03;109660;1251;58633;-70
2023/09/02 09:50:36;;;;;;;3.50;3.30;;;;;;;22.67;100.00;99352.56;109308;1251;63132;-70
2023/09/02 09:53:05;;;;;;;3.80;3.60;;;;;;;22.64;100.00;99357.62;109622;1251;58213;-70
2023/09/02 09:55:33;;;;;;;3.70;3.50;;;;;;;22.58;100.00;99362.69;109679;1250;58145;-70
2023/09/02 09:58:00;;;;;;;3.40;3.10;;;;;;;22.50;100.00;99363.71;109504;1250;64905;-70
2023/09/02 10:00:28;;;;;;;4.00;3.70;;;;;;;22.42;100.00;99359.77;109330;1251;61225;-70
2023/09/02 10:02:57;;;;;;;4.00;3.60;;;;;;;22.41;100.00;99360.55;109655;1250;63870;-71
2023/09/02 10:05:27;;;;;;;4.20;3.90;;;;;;;22.47;100.00;99363.17;109660;1250;58146;-70
2023/09/02 10:08:05;;;;;;;4.20;3.90;;;;;;;22.59;100.00;99369.66;109618;1251;58222;-71
2023/09/02 10:10:33;;;;;;;4.30;4.00;;;;;;;22.79;100.00;99365.45;109576;1251;64125;-71
2023/09/02 10:13:01;;;;;;;4.50;4.10;;;;;;;23.02;100.00;99371.39;109673;1251;58719;-71
2023/09/02 10:15:30;;;;;;;3.90;3.60;;;;;;;23.24;100.00;99374.86;109686;1251;63889;-70
2023/09/02 10:17:59;;;;;;;4.90;4.40;;;;;;;23.52;100.00;99374.69;109612;1250;58203;-71
2023/09/02 10:20:28;;;;;;;5.00;4.60;;;;;;;23.52;100.00;99374.04;109684;1250;58171;-71
2023/09/02 10:23:06;;;;;;;5.30;4.80;;;;;;;23.41;100.00;99378.13;109618;1251;64847;-70
2023/09/02 10:26:00;;;;;;;5.30;4.90;;;;;;;23.34;100.00;99380.77;109695;1251;58966;-71
2023/09/02 10:28:36;;;;;;;4.50;4.20;;;;;;;23.45;100.00;99377.71;108955;1260;65355;-71
2023/09/02 10:31:19;;;;;;;4.70;4.40;;;;;;;23.55;100.00;99376.55;108961;1259;58191;-71
2023/09/02 10:33:52;;;;;;;5.20;4.70;;;;;;;23.59;100.00;99375.75;108976;1259;58178;-71
2023/09/02 10:36:22;;;;;;;5.30;4.80;;;;;;;23.65;100.00;99377.21;108990;1259;65282;-70
2023/09/02 10:38:53;;;;;;;5.00;4.60;;;;;;;23.80;100.00;99377.15;108985;1259;60165;-70
2023/09/02 10:41:23;;;;;;;4.90;4.60;;;;;;;23.91;100.00;99370.40;108988;1259;62549;-71
2023/09/02 10:43:50;;;;;;;5.30;4.90;;;;;;;23.98;100.00;99373.26;108936;1259;58275;-69
2023/09/02 10:46:17;;;;;;;5.10;4.60;;;;;;;24.18;100.00;99366.86;108902;1260;58271;-70
2023/09/02 10:48:45;;;;;;;4.30;4.00;;;;;;;24.39;100.00;99367.35;108888;1260;66100;-71
2023/09/02 10:51:13;;;;;;;4.70;4.30;;;;;;;24.58;100.00;99366.79;108947;1260;59225;-71
2023/09/02 10:53:52;;;;;;;6.90;4.90;;;;;;;24.63;100.00;99367.63;108911;1260;63890;-71
2023/09/02 10:56:31;;;;;;;4.70;4.40;;;;;;;24.65;100.00;99369.17;108901;1261;58213;-72
2023/09/02 10:58:59;;;;;;;4.40;4.10;;;;;;;24.67;100.00;99368.13;108928;1261;58362;-71
2023/09/02 11:01:41;;;;;;;4.30;3.90;;;;;;;24.68;100.00;99370.90;108929;1261;64105;-71
2023/09/02 11:04:08;;;;;;;5.60;4.80;;;;;;;24.70;100.00;99377.06;108912;1260;58652;-71
2023/09/02 11:06:34;;;;;;;4.30;4.00;;;;;;;24.76;100.00;99379.33;109196;1253;64152;-72
2023/09/02 11:09:01;;;;;;;3.90;3.60;;;;;;;24.83;100.00;99384.44;109580;1252;58144;-71
2023/09/02 11:12:06;;;;;;;3.80;3.50;;;;;;;24.98;100.00;99380.19;109553;1255;58202;-69
2023/09/02 11:14:32;;;;;;;3.70;3.40;;;;;;;25.24;100.00;99380.52;109559;1254;65265;-71